Etusivu
METAR-TAF:

METAR-TAF

Lentoasemat :

Dubai, Yhdistyneet arabiemiirikunnat

Dubain kansainvälinen lentoasema

Leveyspiiri: 25-15-10N, Pituuspiiri: 055-21-52E, korkeus merenpinnasta: 8 m

Tämänhetkinen sää

Tämä raportti tehtiin 12 minuuttia sitten, kello 05.00 UTC
Tuuli 7 kn idästä, vaihdellen idän/koillisen ja kaakon välillä
Lämpötila 36°C
Kosteus 17%
Ilmanpaine 1005 hPa
Näkyvyys 10 km tai enemmän
ei pilviä alle 1500 m:ssä eikä cumulonimbus-pilviä

METAR: OMDB 210500Z 10007KT 070V130 CAVOK 36/07 Q1005 NOSIG

Aika: 09:12 (05:12 UTC)

Sääennuste

Tämä raportti tehtiin 6 tuntia ja 17 minuuttia sitten, kello 22.55 UTC
Ennuste voimassa 21. päivästä klo 00 UTC - 22. päivään klo 06 UTC
Tuuli 7 kn idästä
Näkyvyys: 8000 m
Tulossa
21. päivästä klo 08 UTC - 21. päivään klo 10 UTC
Tuuli 14 kn pohjoisesta
Tulossa
21. päivästä klo 14 UTC - 21. päivään klo 16 UTC
Tuuli 8 kn idästä

TAF: OMDB 202255Z 2100/2206 08007KT 8000 NSC BECMG 2108/2110 35014KT BECMG 2114/2116 08008KT

Säähavainnot ja -ennusteet yli 4000 lentoasemalta (METAR- ja TAF-raportit).

Käytössä olevat sääasemat on merkitty karttaan keltaisilla ja punaisilla pisteillä.

Aseta hiiri pisteen päälle nähdäksesi sääaseman nimen.

Klikkaa sitten nähdäksesi säähavainnot ja -ennusteet.

Kartan vaihtaminen: klikkaa mustalla rastilla varustettuja vihreitä pisteitä, niin voit zoomata sisään; viivalla varustettua vihreää pistettä, niin voit zoomata ulos tai vihreitä nuolia, niin pääset viereisille kartoille.


METAR-TAF: